Gap Mills, West Virginia
Current Conditions -  °F | °C
As of 1:55 PM on Monday 20 Oct 2014 (Local Time) from KLWB Reporting Station
Clear Clear  
Wind Chill: 61°   Ceiling: Unl
Heat Index: 61°   Visibility: 10mi
Dew Point: 38°   Wind: 7mph
Humidity: 43%   Direction: 230°SW
Pressure: 30"   Gusts: NA
Location:  37.57°N, 80.41°W
Report Text: KLWB 201755Z AUTO 23006KT 10SM CLR 16/03 A3000 RMK AO2 T01600034 10160 20001
Loading
Personal Weather Stations






























Interactive Weather Map
Tropical Storm Tracking
New forecast layout! Learn more

10-Day Weather Forecast

Advertisements
Track Severe Weather on mobile